sensor_id;sensor_type;location;lat;lon;timestamp;pressure;altitude;pressure_sealevel;temperature;humidity
13800;BME280;6971;50.028;9.258;2024-02-16T00:00:29;99246.94;;;8.14;100.00
13800;BME280;6971;50.028;9.258;2024-02-16T00:05:29;99247.25;;;8.08;100.00
13800;BME280;6971;50.028;9.258;2024-02-16T00:10:30;99256.25;;;8.02;100.00
13800;BME280;6971;50.028;9.258;2024-02-16T00:15:30;99253.81;;;8.17;100.00
13800;BME280;6971;50.028;9.258;2024-02-16T00:20:31;99253.38;;;8.07;100.00
13800;BME280;6971;50.028;9.258;2024-02-16T00:25:31;99254.94;;;8.11;100.00
13800;BME280;6971;50.028;9.258;2024-02-16T00:30:31;99253.25;;;8.10;100.00
13800;BME280;6971;50.028;9.258;2024-02-16T00:35:32;99245.63;;;8.05;100.00
13800;BME280;6971;50.028;9.258;2024-02-16T00:40:33;99234.56;;;7.99;100.00
13800;BME280;6971;50.028;9.258;2024-02-16T00:45:33;99231.25;;;7.93;100.00
13800;BME280;6971;50.028;9.258;2024-02-16T00:50:34;99237.94;;;8.01;100.00
13800;BME280;6971;50.028;9.258;2024-02-16T00:55:35;99238.06;;;7.97;100.00
13800;BME280;6971;50.028;9.258;2024-02-16T01:05:39;99210.84;;;8.00;100.00
13800;BME280;6971;50.028;9.258;2024-02-16T01:10:40;99207.94;;;7.87;100.00
13800;BME280;6971;50.028;9.258;2024-02-16T01:15:40;99208.81;;;7.88;100.00
13800;BME280;6971;50.028;9.258;2024-02-16T01:20:41;99208.88;;;7.86;100.00
13800;BME280;6971;50.028;9.258;2024-02-16T01:25:42;99196.81;;;7.82;100.00
13800;BME280;6971;50.028;9.258;2024-02-16T01:30:42;99198.13;;;7.71;100.00
13800;BME280;6971;50.028;9.258;2024-02-16T01:35:43;99197.94;;;7.76;100.00
13800;BME280;6971;50.028;9.258;2024-02-16T01:40:43;99199.44;;;7.82;100.00
13800;BME280;6971;50.028;9.258;2024-02-16T01:45:43;99196.44;;;7.90;100.00
13800;BME280;6971;50.028;9.258;2024-02-16T01:50:44;99200.06;;;7.87;100.00
13800;BME280;6971;50.028;9.258;2024-02-16T01:55:46;99210.13;;;7.96;100.00
13800;BME280;6971;50.028;9.258;2024-02-16T02:00:46;99214.25;;;8.02;100.00
13800;BME280;6971;50.028;9.258;2024-02-16T02:05:46;99209.00;;;8.02;100.00
13800;BME280;6971;50.028;9.258;2024-02-16T02:10:47;99213.69;;;7.95;100.00
13800;BME280;6971;50.028;9.258;2024-02-16T02:15:47;99220.69;;;7.95;100.00
13800;BME280;6971;50.028;9.258;2024-02-16T02:20:48;99213.69;;;7.95;100.00
13800;BME280;6971;50.028;9.258;2024-02-16T02:25:48;99206.19;;;7.88;100.00
13800;BME280;6971;50.028;9.258;2024-02-16T02:30:50;99204.69;;;7.82;100.00
13800;BME280;6971;50.028;9.258;2024-02-16T02:35:51;99191.69;;;7.79;100.00
13800;BME280;6971;50.028;9.258;2024-02-16T02:40:51;99197.66;;;7.63;100.00
13800;BME280;6971;50.028;9.258;2024-02-16T02:45:51;99196.94;;;7.60;100.00
13800;BME280;6971;50.028;9.258;2024-02-16T02:50:52;99181.19;;;7.40;100.00
13800;BME280;6971;50.028;9.258;2024-02-16T02:55:52;99183.31;;;7.32;100.00
13800;BME280;6971;50.028;9.258;2024-02-16T03:00:53;99181.47;;;7.34;100.00
13800;BME280;6971;50.028;9.258;2024-02-16T03:05:53;99182.06;;;7.20;100.00
13800;BME280;6971;50.028;9.258;2024-02-16T03:10:53;99178.75;;;7.16;100.00
13800;BME280;6971;50.028;9.258;2024-02-16T03:15:54;99185.41;;;7.24;100.00
13800;BME280;6971;50.028;9.258;2024-02-16T03:20:54;99191.72;;;7.20;100.00
13800;BME280;6971;50.028;9.258;2024-02-16T03:25:55;99191.19;;;7.11;100.00
13800;BME280;6971;50.028;9.258;2024-02-16T03:30:55;99192.25;;;7.07;100.00
13800;BME280;6971;50.028;9.258;2024-02-16T03:35:55;99197.50;;;7.07;100.00
13800;BME280;6971;50.028;9.258;2024-02-16T03:40:56;99194.00;;;7.07;100.00
13800;BME280;6971;50.028;9.258;2024-02-16T03:45:57;99190.69;;;7.03;100.00
13800;BME280;6971;50.028;9.258;2024-02-16T03:50:57;99192.72;;;6.96;100.00
13800;BME280;6971;50.028;9.258;2024-02-16T03:55:58;99196.97;;;6.99;100.00
13800;BME280;6971;50.028;9.258;2024-02-16T04:00:58;99198.81;;;6.97;100.00
13800;BME280;6971;50.028;9.258;2024-02-16T04:06:00;99198.22;;;6.90;100.00
13800;BME280;6971;50.028;9.258;2024-02-16T04:11:01;99199.00;;;6.92;100.00
13800;BME280;6971;50.028;9.258;2024-02-16T04:16:03;99201.94;;;6.84;100.00
13800;BME280;6971;50.028;9.258;2024-02-16T04:21:03;99221.50;;;6.75;100.00
13800;BME280;6971;50.028;9.258;2024-02-16T04:26:04;99218.81;;;6.77;100.00
13800;BME280;6971;50.028;9.258;2024-02-16T04:31:07;99219.63;;;6.79;100.00
13800;BME280;6971;50.028;9.258;2024-02-16T04:36:07;99214.06;;;6.87;100.00
13800;BME280;6971;50.028;9.258;2024-02-16T04:41:08;99222.91;;;6.84;100.00
13800;BME280;6971;50.028;9.258;2024-02-16T04:46:14;99217.00;;;6.79;100.00
13800;BME280;6971;50.028;9.258;2024-02-16T04:51:14;99219.75;;;6.76;100.00
13800;BME280;6971;50.028;9.258;2024-02-16T04:56:15;99219.47;;;6.61;100.00
13800;BME280;6971;50.028;9.258;2024-02-16T05:01:15;99219.31;;;6.64;100.00
13800;BME280;6971;50.028;9.258;2024-02-16T05:06:15;99224.81;;;6.58;100.00
13800;BME280;6971;50.028;9.258;2024-02-16T05:11:16;99225.88;;;6.54;100.00
13800;BME280;6971;50.028;9.258;2024-02-16T05:16:16;99222.03;;;6.40;100.00
13800;BME280;6971;50.028;9.258;2024-02-16T05:21:16;99216.09;;;6.37;100.00
13800;BME280;6971;50.028;9.258;2024-02-16T05:26:17;99217.19;;;6.31;100.00
13800;BME280;6971;50.028;9.258;2024-02-16T05:31:17;99218.94;;;6.31;100.00
13800;BME280;6971;50.028;9.258;2024-02-16T05:36:21;99213.91;;;6.26;100.00
13800;BME280;6971;50.028;9.258;2024-02-16T05:41:25;99215.81;;;6.21;100.00
13800;BME280;6971;50.028;9.258;2024-02-16T05:46:25;99218.63;;;6.16;100.00
13800;BME280;6971;50.028;9.258;2024-02-16T05:51:26;99221.41;;;6.11;100.00
13800;BME280;6971;50.028;9.258;2024-02-16T05:56:26;99221.38;;;5.89;100.00
13800;BME280;6971;50.028;9.258;2024-02-16T06:01:29;99226.59;;;5.89;100.00
13800;BME280;6971;50.028;9.258;2024-02-16T06:06:29;99227.56;;;5.86;100.00
13800;BME280;6971;50.028;9.258;2024-02-16T06:11:30;99240.31;;;5.96;100.00
13800;BME280;6971;50.028;9.258;2024-02-16T06:16:30;99233.38;;;5.95;100.00
13800;BME280;6971;50.028;9.258;2024-02-16T06:21:30;99235.66;;;6.04;100.00
13800;BME280;6971;50.028;9.258;2024-02-16T06:26:31;99240.09;;;6.00;100.00
13800;BME280;6971;50.028;9.258;2024-02-16T06:31:31;99239.28;;;6.00;100.00
13800;BME280;6971;50.028;9.258;2024-02-16T06:36:32;99245.88;;;6.10;100.00
13800;BME280;6971;50.028;9.258;2024-02-16T06:41:32;99256.28;;;6.12;100.00
13800;BME280;6971;50.028;9.258;2024-02-16T06:46:33;99273.38;;;6.21;100.00
13800;BME280;6971;50.028;9.258;2024-02-16T06:51:38;99262.91;;;6.21;100.00
13800;BME280;6971;50.028;9.258;2024-02-16T06:56:39;99269.75;;;6.25;100.00
13800;BME280;6971;50.028;9.258;2024-02-16T07:01:39;99267.88;;;6.29;100.00
13800;BME280;6971;50.028;9.258;2024-02-16T07:06:40;99269.53;;;6.31;100.00
13800;BME280;6971;50.028;9.258;2024-02-16T07:11:41;99274.44;;;6.39;100.00
13800;BME280;6971;50.028;9.258;2024-02-16T07:16:42;99275.94;;;6.46;100.00
13800;BME280;6971;50.028;9.258;2024-02-16T07:21:43;99280.78;;;6.56;100.00
13800;BME280;6971;50.028;9.258;2024-02-16T07:26:44;99281.56;;;6.80;100.00
13800;BME280;6971;50.028;9.258;2024-02-16T07:31:44;99282.41;;;6.81;100.00
13800;BME280;6971;50.028;9.258;2024-02-16T07:36:45;99276.00;;;6.88;100.00
13800;BME280;6971;50.028;9.258;2024-02-16T07:41:45;99282.88;;;6.90;100.00
13800;BME280;6971;50.028;9.258;2024-02-16T07:46:46;99296.41;;;7.02;100.00
13800;BME280;6971;50.028;9.258;2024-02-16T07:51:47;99301.50;;;7.05;100.00
13800;BME280;6971;50.028;9.258;2024-02-16T07:56:49;99308.31;;;7.09;100.00
13800;BME280;6971;50.028;9.258;2024-02-16T08:01:49;99294.31;;;7.10;100.00
13800;BME280;6971;50.028;9.258;2024-02-16T08:06:50;99308.06;;;7.36;100.00
13800;BME280;6971;50.028;9.258;2024-02-16T08:11:50;99305.97;;;7.65;100.00
13800;BME280;6971;50.028;9.258;2024-02-16T08:16:51;99306.38;;;7.56;100.00
13800;BME280;6971;50.028;9.258;2024-02-16T08:21:51;99320.53;;;7.73;100.00
13800;BME280;6971;50.028;9.258;2024-02-16T08:26:52;99312.75;;;8.09;100.00
13800;BME280;6971;50.028;9.258;2024-02-16T08:31:53;99307.94;;;8.19;100.00
13800;BME280;6971;50.028;9.258;2024-02-16T08:36:54;99314.50;;;8.30;100.00
13800;BME280;6971;50.028;9.258;2024-02-16T08:41:56;99321.34;;;8.71;100.00
13800;BME280;6971;50.028;9.258;2024-02-16T08:46:56;99319.16;;;8.81;100.00
13800;BME280;6971;50.028;9.258;2024-02-16T08:51:57;99328.13;;;8.94;100.00
13800;BME280;6971;50.028;9.258;2024-02-16T08:56:57;99325.75;;;9.43;100.00
13800;BME280;6971;50.028;9.258;2024-02-16T09:01:57;99319.88;;;9.55;100.00
13800;BME280;6971;50.028;9.258;2024-02-16T09:06:59;99330.19;;;10.10;100.00
13800;BME280;6971;50.028;9.258;2024-02-16T09:11:59;99327.63;;;10.74;100.00
13800;BME280;6971;50.028;9.258;2024-02-16T09:16:59;99331.38;;;12.07;100.00
13800;BME280;6971;50.028;9.258;2024-02-16T09:22:00;99330.50;;;12.36;100.00
13800;BME280;6971;50.028;9.258;2024-02-16T09:27:03;99352.50;;;14.25;100.00
13800;BME280;6971;50.028;9.258;2024-02-16T09:32:05;99347.53;;;13.14;100.00
13800;BME280;6971;50.028;9.258;2024-02-16T09:37:06;99349.31;;;12.86;100.00
13800;BME280;6971;50.028;9.258;2024-02-16T09:42:06;99359.44;;;13.35;100.00
13800;BME280;6971;50.028;9.258;2024-02-16T09:47:07;99376.13;;;15.16;100.00
13800;BME280;6971;50.028;9.258;2024-02-16T09:52:13;99381.59;;;14.64;100.00
13800;BME280;6971;50.028;9.258;2024-02-16T09:57:16;99390.66;;;14.72;100.00
13800;BME280;6971;50.028;9.258;2024-02-16T10:02:17;99386.66;;;14.67;100.00
13800;BME280;6971;50.028;9.258;2024-02-16T10:07:17;99393.47;;;14.58;100.00
13800;BME280;6971;50.028;9.258;2024-02-16T10:12:18;99397.34;;;15.40;100.00
13800;BME280;6971;50.028;9.258;2024-02-16T10:17:19;99397.22;;;16.92;100.00
13800;BME280;6971;50.028;9.258;2024-02-16T10:22:20;99393.13;;;16.88;100.00
13800;BME280;6971;50.028;9.258;2024-02-16T10:27:20;99404.13;;;15.91;97.71
13800;BME280;6971;50.028;9.258;2024-02-16T10:32:21;99405.47;;;15.01;100.00
13800;BME280;6971;50.028;9.258;2024-02-16T10:37:23;99400.88;;;15.63;100.00
13800;BME280;6971;50.028;9.258;2024-02-16T10:42:27;99398.72;;;16.04;100.00
13800;BME280;6971;50.028;9.258;2024-02-16T10:47:27;99406.25;;;15.75;100.00
13800;BME280;6971;50.028;9.258;2024-02-16T10:52:28;99398.31;;;15.50;100.00
13800;BME280;6971;50.028;9.258;2024-02-16T10:57:29;99407.78;;;15.06;100.00
13800;BME280;6971;50.028;9.258;2024-02-16T11:02:31;99414.66;;;16.04;100.00
13800;BME280;6971;50.028;9.258;2024-02-16T11:07:31;99405.97;;;15.66;100.00
13800;BME280;6971;50.028;9.258;2024-02-16T11:12:35;99406.91;;;16.01;99.74
13800;BME280;6971;50.028;9.258;2024-02-16T11:17:35;99409.81;;;15.62;99.33
13800;BME280;6971;50.028;9.258;2024-02-16T11:22:37;99414.41;;;17.32;95.96
13800;BME280;6971;50.028;9.258;2024-02-16T11:27:39;99405.78;;;16.95;95.36
13800;BME280;6971;50.028;9.258;2024-02-16T11:32:42;99415.41;;;18.37;86.42
13800;BME280;6971;50.028;9.258;2024-02-16T11:37:43;99413.81;;;18.04;86.95
13800;BME280;6971;50.028;9.258;2024-02-16T11:42:46;99418.69;;;17.56;87.40
13800;BME280;6971;50.028;9.258;2024-02-16T11:47:47;99420.59;;;17.65;87.53
13800;BME280;6971;50.028;9.258;2024-02-16T11:52:48;99432.72;;;16.58;93.17
13800;BME280;6971;50.028;9.258;2024-02-16T11:57:49;99418.38;;;17.05;91.26
13800;BME280;6971;50.028;9.258;2024-02-16T12:03:01;99426.31;;;16.61;91.59
13800;BME280;6971;50.028;9.258;2024-02-16T12:08:01;99404.44;;;15.39;98.55
13800;BME280;6971;50.028;9.258;2024-02-16T12:13:03;99403.78;;;15.00;100.00
13800;BME280;6971;50.028;9.258;2024-02-16T12:18:03;99409.97;;;15.36;100.00
13800;BME280;6971;50.028;9.258;2024-02-16T12:23:11;99403.38;;;14.93;100.00
13800;BME280;6971;50.028;9.258;2024-02-16T12:28:12;99409.56;;;14.68;100.00
13800;BME280;6971;50.028;9.258;2024-02-16T12:33:14;99412.09;;;14.95;100.00
13800;BME280;6971;50.028;9.258;2024-02-16T12:38:15;99419.09;;;15.21;100.00
13800;BME280;6971;50.028;9.258;2024-02-16T12:43:17;99420.34;;;15.64;100.00
13800;BME280;6971;50.028;9.258;2024-02-16T12:48:19;99417.50;;;15.18;100.00
13800;BME280;6971;50.028;9.258;2024-02-16T12:53:20;99428.88;;;14.83;100.00
13800;BME280;6971;50.028;9.258;2024-02-16T12:58:21;99421.78;;;15.08;100.00
13800;BME280;6971;50.028;9.258;2024-02-16T13:03:22;99423.94;;;15.03;100.00
13800;BME280;6971;50.028;9.258;2024-02-16T13:08:22;99435.63;;;15.00;100.00
13800;BME280;6971;50.028;9.258;2024-02-16T13:13:23;99430.66;;;14.95;100.00
13800;BME280;6971;50.028;9.258;2024-02-16T13:18:24;99433.44;;;15.43;100.00
13800;BME280;6971;50.028;9.258;2024-02-16T13:23:25;99426.75;;;15.37;100.00
13800;BME280;6971;50.028;9.258;2024-02-16T13:28:25;99422.34;;;15.24;100.00
13800;BME280;6971;50.028;9.258;2024-02-16T13:33:26;99425.94;;;15.72;100.00
13800;BME280;6971;50.028;9.258;2024-02-16T13:38:26;99428.69;;;15.71;100.00
13800;BME280;6971;50.028;9.258;2024-02-16T13:43:27;99420.41;;;14.78;100.00
13800;BME280;6971;50.028;9.258;2024-02-16T13:48:28;99421.88;;;15.06;100.00
13800;BME280;6971;50.028;9.258;2024-02-16T13:53:30;99424.88;;;15.50;100.00
13800;BME280;6971;50.028;9.258;2024-02-16T13:58:31;99434.53;;;15.51;100.00
13800;BME280;6971;50.028;9.258;2024-02-16T14:03:32;99436.94;;;15.79;100.00
13800;BME280;6971;50.028;9.258;2024-02-16T14:08:33;99430.47;;;15.59;100.00
13800;BME280;6971;50.028;9.258;2024-02-16T14:13:34;99428.94;;;15.43;100.00
13800;BME280;6971;50.028;9.258;2024-02-16T14:18:34;99427.34;;;15.29;100.00
13800;BME280;6971;50.028;9.258;2024-02-16T14:23:34;99436.59;;;15.23;100.00
13800;BME280;6971;50.028;9.258;2024-02-16T14:28:35;99435.41;;;15.03;100.00
13800;BME280;6971;50.028;9.258;2024-02-16T14:33:35;99438.22;;;14.88;100.00
13800;BME280;6971;50.028;9.258;2024-02-16T14:38:35;99431.41;;;14.71;100.00
13800;BME280;6971;50.028;9.258;2024-02-16T14:43:36;99436.88;;;14.57;100.00
13800;BME280;6971;50.028;9.258;2024-02-16T14:48:37;99438.91;;;14.53;100.00
13800;BME280;6971;50.028;9.258;2024-02-16T14:53:37;99449.72;;;14.50;100.00
13800;BME280;6971;50.028;9.258;2024-02-16T14:58:37;99464.09;;;14.59;100.00
13800;BME280;6971;50.028;9.258;2024-02-16T15:03:38;99450.94;;;14.57;100.00
13800;BME280;6971;50.028;9.258;2024-02-16T15:08:39;99458.06;;;14.57;100.00
13800;BME280;6971;50.028;9.258;2024-02-16T15:13:39;99472.59;;;14.51;100.00
13800;BME280;6971;50.028;9.258;2024-02-16T15:18:39;99480.88;;;14.33;100.00
13800;BME280;6971;50.028;9.258;2024-02-16T15:23:40;99488.75;;;14.35;100.00
13800;BME280;6971;50.028;9.258;2024-02-16T15:28:40;99494.47;;;14.29;100.00
13800;BME280;6971;50.028;9.258;2024-02-16T15:33:41;99495.94;;;14.20;100.00
13800;BME280;6971;50.028;9.258;2024-02-16T15:38:41;99499.84;;;14.14;100.00
13800;BME280;6971;50.028;9.258;2024-02-16T15:43:42;99510.09;;;14.06;100.00
13800;BME280;6971;50.028;9.258;2024-02-16T15:48:42;99518.94;;;13.79;100.00
13800;BME280;6971;50.028;9.258;2024-02-16T15:53:43;99517.16;;;13.52;100.00
13800;BME280;6971;50.028;9.258;2024-02-16T15:58:43;99533.25;;;13.34;100.00
13800;BME280;6971;50.028;9.258;2024-02-16T16:03:44;99549.53;;;13.28;100.00
13800;BME280;6971;50.028;9.258;2024-02-16T16:08:46;99551.25;;;13.14;100.00
13800;BME280;6971;50.028;9.258;2024-02-16T16:13:46;99549.47;;;13.00;100.00
13800;BME280;6971;50.028;9.258;2024-02-16T16:18:47;99557.03;;;12.92;100.00
13800;BME280;6971;50.028;9.258;2024-02-16T16:23:47;99569.50;;;12.90;100.00
13800;BME280;6971;50.028;9.258;2024-02-16T16:28:48;99569.69;;;12.87;100.00
13800;BME280;6971;50.028;9.258;2024-02-16T16:33:48;99573.00;;;12.76;100.00
13800;BME280;6971;50.028;9.258;2024-02-16T16:38:49;99574.69;;;12.77;100.00
13800;BME280;6971;50.028;9.258;2024-02-16T16:43:49;99585.25;;;12.77;100.00
13800;BME280;6971;50.028;9.258;2024-02-16T16:48:50;99583.56;;;12.76;100.00
13800;BME280;6971;50.028;9.258;2024-02-16T16:53:50;99593.19;;;12.62;100.00
13800;BME280;6971;50.028;9.258;2024-02-16T16:58:51;99596.47;;;12.51;100.00
13800;BME280;6971;50.028;9.258;2024-02-16T17:03:51;99607.22;;;12.48;100.00
13800;BME280;6971;50.028;9.258;2024-02-16T17:08:53;99607.59;;;12.42;100.00
13800;BME280;6971;50.028;9.258;2024-02-16T17:13:53;99618.75;;;12.17;100.00
13800;BME280;6971;50.028;9.258;2024-02-16T17:18:54;99622.66;;;11.93;100.00
13800;BME280;6971;50.028;9.258;2024-02-16T17:23:54;99633.31;;;11.75;100.00
13800;BME280;6971;50.028;9.258;2024-02-16T17:28:54;99630.63;;;11.61;100.00
13800;BME280;6971;50.028;9.258;2024-02-16T17:33:55;99638.09;;;11.53;100.00
13800;BME280;6971;50.028;9.258;2024-02-16T17:38:55;99633.06;;;11.48;100.00
13800;BME280;6971;50.028;9.258;2024-02-16T17:43:56;99641.56;;;11.37;100.00
13800;BME280;6971;50.028;9.258;2024-02-16T17:48:56;99646.31;;;11.30;100.00
13800;BME280;6971;50.028;9.258;2024-02-16T17:53:57;99646.66;;;11.24;100.00
13800;BME280;6971;50.028;9.258;2024-02-16T17:58:57;99657.84;;;11.12;100.00
13800;BME280;6971;50.028;9.258;2024-02-16T18:03:58;99666.09;;;11.05;100.00
13800;BME280;6971;50.028;9.258;2024-02-16T18:08:58;99671.94;;;10.94;100.00
13800;BME280;6971;50.028;9.258;2024-02-16T18:13:58;99679.75;;;10.96;100.00
13800;BME280;6971;50.028;9.258;2024-02-16T18:18:59;99682.00;;;11.04;100.00
13800;BME280;6971;50.028;9.258;2024-02-16T18:23:59;99693.72;;;10.98;100.00
13800;BME280;6971;50.028;9.258;2024-02-16T18:29:00;99705.19;;;10.97;100.00
13800;BME280;6971;50.028;9.258;2024-02-16T18:34:00;99699.13;;;10.95;100.00
13800;BME280;6971;50.028;9.258;2024-02-16T18:39:00;99705.81;;;11.02;100.00
13800;BME280;6971;50.028;9.258;2024-02-16T18:44:02;99708.22;;;10.89;100.00
13800;BME280;6971;50.028;9.258;2024-02-16T18:49:03;99705.41;;;10.92;100.00
13800;BME280;6971;50.028;9.258;2024-02-16T18:54:03;99704.81;;;10.87;100.00
13800;BME280;6971;50.028;9.258;2024-02-16T18:59:06;99709.22;;;10.87;100.00
13800;BME280;6971;50.028;9.258;2024-02-16T19:04:08;99715.13;;;10.74;100.00
13800;BME280;6971;50.028;9.258;2024-02-16T19:09:08;99713.88;;;10.81;100.00
13800;BME280;6971;50.028;9.258;2024-02-16T19:14:09;99724.75;;;10.75;100.00
13800;BME280;6971;50.028;9.258;2024-02-16T19:19:09;99726.50;;;10.75;100.00
13800;BME280;6971;50.028;9.258;2024-02-16T19:24:12;99730.28;;;10.69;100.00
13800;BME280;6971;50.028;9.258;2024-02-16T19:29:12;99735.13;;;10.78;100.00
13800;BME280;6971;50.028;9.258;2024-02-16T19:34:12;99749.69;;;10.68;100.00
13800;BME280;6971;50.028;9.258;2024-02-16T19:39:13;99755.28;;;10.62;100.00
13800;BME280;6971;50.028;9.258;2024-02-16T19:44:15;99761.63;;;10.57;100.00
13800;BME280;6971;50.028;9.258;2024-02-16T19:49:17;99765.09;;;10.58;100.00
13800;BME280;6971;50.028;9.258;2024-02-16T19:54:17;99769.53;;;10.57;100.00
13800;BME280;6971;50.028;9.258;2024-02-16T19:59:18;99778.38;;;10.56;100.00
13800;BME280;6971;50.028;9.258;2024-02-16T20:04:18;99779.94;;;10.61;100.00
13800;BME280;6971;50.028;9.258;2024-02-16T20:09:18;99787.38;;;10.70;100.00
13800;BME280;6971;50.028;9.258;2024-02-16T20:14:19;99794.97;;;10.76;100.00
13800;BME280;6971;50.028;9.258;2024-02-16T20:19:19;99798.75;;;10.70;100.00
13800;BME280;6971;50.028;9.258;2024-02-16T20:24:20;99802.19;;;10.73;100.00
13800;BME280;6971;50.028;9.258;2024-02-16T20:29:20;99807.22;;;10.77;100.00
13800;BME280;6971;50.028;9.258;2024-02-16T20:34:22;99812.50;;;10.77;100.00
13800;BME280;6971;50.028;9.258;2024-02-16T20:39:23;99818.69;;;10.76;100.00
13800;BME280;6971;50.028;9.258;2024-02-16T20:44:23;99829.31;;;10.75;100.00
13800;BME280;6971;50.028;9.258;2024-02-16T20:49:24;99832.25;;;10.68;100.00
13800;BME280;6971;50.028;9.258;2024-02-16T20:54:25;99837.53;;;10.68;100.00
13800;BME280;6971;50.028;9.258;2024-02-16T20:59:30;99845.13;;;10.75;100.00
13800;BME280;6971;50.028;9.258;2024-02-16T21:09:34;99858.81;;;10.64;100.00
13800;BME280;6971;50.028;9.258;2024-02-16T21:14:34;99861.75;;;10.77;100.00
13800;BME280;6971;50.028;9.258;2024-02-16T21:19:35;99863.03;;;10.68;100.00
13800;BME280;6971;50.028;9.258;2024-02-16T21:24:35;99862.97;;;10.69;100.00
13800;BME280;6971;50.028;9.258;2024-02-16T21:29:36;99874.50;;;10.67;100.00
13800;BME280;6971;50.028;9.258;2024-02-16T21:34:37;99883.47;;;10.63;100.00
13800;BME280;6971;50.028;9.258;2024-02-16T21:39:38;99884.41;;;10.62;100.00
13800;BME280;6971;50.028;9.258;2024-02-16T21:44:41;99887.06;;;10.62;100.00
13800;BME280;6971;50.028;9.258;2024-02-16T21:49:41;99889.69;;;10.62;100.00
13800;BME280;6971;50.028;9.258;2024-02-16T21:54:42;99896.84;;;10.58;100.00
13800;BME280;6971;50.028;9.258;2024-02-16T21:59:42;99905.94;;;10.52;100.00
13800;BME280;6971;50.028;9.258;2024-02-16T22:04:42;99905.94;;;10.52;100.00
13800;BME280;6971;50.028;9.258;2024-02-16T22:09:43;99918.25;;;10.52;100.00
13800;BME280;6971;50.028;9.258;2024-02-16T22:14:43;99921.00;;;10.49;100.00
13800;BME280;6971;50.028;9.258;2024-02-16T22:19:44;99923.81;;;10.46;100.00
13800;BME280;6971;50.028;9.258;2024-02-16T22:24:44;99929.78;;;10.49;100.00
13800;BME280;6971;50.028;9.258;2024-02-16T22:29:45;99929.25;;;10.41;100.00
13800;BME280;6971;50.028;9.258;2024-02-16T22:34:45;99948.56;;;10.41;100.00
13800;BME280;6971;50.028;9.258;2024-02-16T22:39:45;99954.66;;;10.42;100.00
13800;BME280;6971;50.028;9.258;2024-02-16T22:44:46;99957.34;;;10.40;100.00
13800;BME280;6971;50.028;9.258;2024-02-16T22:49:46;99961.78;;;10.40;100.00
13800;BME280;6971;50.028;9.258;2024-02-16T22:54:47;99972.31;;;10.40;100.00
13800;BME280;6971;50.028;9.258;2024-02-16T22:59:47;99973.16;;;10.40;100.00
13800;BME280;6971;50.028;9.258;2024-02-16T23:04:47;99987.09;;;10.44;100.00
13800;BME280;6971;50.028;9.258;2024-02-16T23:09:48;99983.53;;;10.45;100.00
13800;BME280;6971;50.028;9.258;2024-02-16T23:14:48;99989.53;;;10.49;100.00
13800;BME280;6971;50.028;9.258;2024-02-16T23:19:49;99993.28;;;10.43;100.00
13800;BME280;6971;50.028;9.258;2024-02-16T23:24:49;99998.56;;;10.43;100.00
13800;BME280;6971;50.028;9.258;2024-02-16T23:29:49;99995.34;;;10.36;100.00
13800;BME280;6971;50.028;9.258;2024-02-16T23:34:50;100006.94;;;10.32;100.00
13800;BME280;6971;50.028;9.258;2024-02-16T23:39:50;100020.41;;;10.24;100.00
13800;BME280;6971;50.028;9.258;2024-02-16T23:44:51;100014.44;;;10.21;100.00
13800;BME280;6971;50.028;9.258;2024-02-16T23:49:52;100020.69;;;10.18;100.00
13800;BME280;6971;50.028;9.258;2024-02-16T23:54:52;100024.50;;;10.11;100.00
13800;BME280;6971;50.028;9.258;2024-02-16T23:59:53;100041.16;;;10.11;100.00
